< < Back
Terminal Aerodrome Forecast


Current Version              Previous Versions:   1  2  3  4  5  6  7  8  9  

Terminal Aerodrome Forecast

396
FTUS42 KTAE 281100
TAFDHN
TAF
KDHN 281130Z 2812/2912 27015KT P6SM SCT030
     FM281800 27015KT P6SM VCTS BKN050CB
     FM282100 VRB15G30KT 3SM +TSRA BKN005 OVC030CB
     FM290000 28010KT P6SM SCT040 BKN100=



Latest METAR

349
SAUS70 KWBC 282000 RRF
MTRDHN
METAR KDHN 281953Z 26012G20KT 10SM FEW043 34/23 A2996 RMK AO2 LTG DSNT
NW SLP139 T03390233


USA.gov is the U.S. government's official web portal to all federal, state and local government web resources and services.